Strona główna
METAR-TAF:

METAR-TAF

Lotnisko :

Pipestone Municipal Airport

Pipestone, Minnesota, Stany Zjednoczone

Szerokość geograficzna: 43-59N, Długość geograficzna: 096-19W, wysokość: 529 m

Aktualna obserwacja pogody

Raport powstał 19 minut temu, godzina 10:35 UTC
Cisza
Temperatura 13°C
Wilgotność 82%
Ciśnienie 1012 hPa
Widzialność: 16.1 km
bezchmurnie

METAR: KPQN 191035Z AUTO 00000KT 10SM CLR 13/10 A2987 RMK AO2

czas: 05:54 (10:54 UTC)


TAF: brakujący

Obserwacja i prognoza pogody dla ponad 4000 lotnisk (raport METAR i TAF).

Dostępne stacje oznaczono żółtymi i czerwonymi punktami na mapie.

Najedź kursorem aby zobaczyć nazwę stacji.

Kliknij aby zobaczyć obserwacje i prognozy pogody.

Aby zmienić mapę: kliknij na zielony przycisk z czarnym krzyżykiem, aby powiększyć; na zielony przycisk z myślnikiem, aby pomniejszyć; na zielone strzałki, aby przejść do map sąsiednich.


METAR-TAF: